Ophir, Utah
Current Conditions -  °F | °C
As of 6:50 AM on Sunday 23 Nov 2014 (Local Time) from KPVU Reporting Station
Broken Clouds Broken Clouds  
Wind Chill: 24°   Ceiling: 6500
Heat Index: 34°   Visibility: 10mi
Dew Point: 21°   Wind: 16mph
Humidity: 60%   Direction: 320°NW
Pressure: 30.11"   Gusts: 32mph
Location:  40.2688°N, 112.37°W
Report Text: KPVU 231350Z 32014G28KT 10SM SCT040 BKN065 01/M06 A3011
Loading
Personal Weather Stations






























Interactive Weather Map New forecast layout! Learn more

10-Day Weather Forecast

Advertisements
Track Severe Weather on mobile